sensor_id;sensor_type;location;lat;lon;timestamp;P1;durP1;ratioP1;P2;durP2;ratioP2
62633;SDS011;48704;50.534;6.442;2022-09-13T00:00:40;2.78;;;1.55;;
62633;SDS011;48704;50.534;6.442;2022-09-13T00:03:06;3.75;;;1.70;;
62633;SDS011;48704;50.534;6.442;2022-09-13T00:05:32;3.47;;;2.00;;
62633;SDS011;48704;50.534;6.442;2022-09-13T00:07:57;3.35;;;1.88;;
62633;SDS011;48704;50.534;6.442;2022-09-13T00:10:23;2.40;;;1.50;;
62633;SDS011;48704;50.534;6.442;2022-09-13T00:12:49;2.90;;;1.55;;
62633;SDS011;48704;50.534;6.442;2022-09-13T00:15:14;2.30;;;1.40;;
62633;SDS011;48704;50.534;6.442;2022-09-13T00:17:40;2.88;;;1.55;;
62633;SDS011;48704;50.534;6.442;2022-09-13T00:20:05;4.10;;;1.70;;
62633;SDS011;48704;50.534;6.442;2022-09-13T00:22:32;2.58;;;1.42;;
62633;SDS011;48704;50.534;6.442;2022-09-13T00:24:57;2.63;;;1.80;;
62633;SDS011;48704;50.534;6.442;2022-09-13T00:27:23;3.33;;;1.80;;
62633;SDS011;48704;50.534;6.442;2022-09-13T00:29:48;2.70;;;1.60;;
62633;SDS011;48704;50.534;6.442;2022-09-13T00:32:13;3.38;;;1.60;;
62633;SDS011;48704;50.534;6.442;2022-09-13T00:34:38;2.50;;;1.40;;
62633;SDS011;48704;50.534;6.442;2022-09-13T00:37:04;2.58;;;1.67;;
62633;SDS011;48704;50.534;6.442;2022-09-13T00:39:29;2.42;;;1.58;;
62633;SDS011;48704;50.534;6.442;2022-09-13T00:41:54;4.05;;;1.83;;
62633;SDS011;48704;50.534;6.442;2022-09-13T00:47:07;3.00;;;1.67;;
62633;SDS011;48704;50.534;6.442;2022-09-13T00:49:34;2.33;;;1.50;;
62633;SDS011;48704;50.534;6.442;2022-09-13T00:52:06;2.38;;;1.33;;
62633;SDS011;48704;50.534;6.442;2022-09-13T00:54:38;3.67;;;1.42;;
62633;SDS011;48704;50.534;6.442;2022-09-13T00:57:09;4.40;;;1.60;;
62633;SDS011;48704;50.534;6.442;2022-09-13T00:59:38;3.90;;;1.30;;
62633;SDS011;48704;50.534;6.442;2022-09-13T01:02:06;2.67;;;1.48;;
62633;SDS011;48704;50.534;6.442;2022-09-13T01:04:33;3.95;;;1.30;;
62633;SDS011;48704;50.534;6.442;2022-09-13T01:07:01;2.17;;;1.30;;
62633;SDS011;48704;50.534;6.442;2022-09-13T01:09:30;3.08;;;1.40;;
62633;SDS011;48704;50.534;6.442;2022-09-13T01:11:59;3.63;;;1.40;;
62633;SDS011;48704;50.534;6.442;2022-09-13T01:14:27;2.10;;;1.30;;
62633;SDS011;48704;50.534;6.442;2022-09-13T01:16:53;2.50;;;1.42;;
62633;SDS011;48704;50.534;6.442;2022-09-13T01:19:18;1.70;;;1.05;;
62633;SDS011;48704;50.534;6.442;2022-09-13T01:46:28;2.85;;;1.38;;
62633;SDS011;48704;50.534;6.442;2022-09-13T01:52:00;2.75;;;1.58;;
62633;SDS011;48704;50.534;6.442;2022-09-13T01:57:29;2.47;;;1.27;;
62633;SDS011;48704;50.534;6.442;2022-09-13T02:00:02;2.58;;;1.50;;
62633;SDS011;48704;50.534;6.442;2022-09-13T02:02:34;2.50;;;1.27;;
62633;SDS011;48704;50.534;6.442;2022-09-13T02:05:15;2.63;;;1.48;;
62633;SDS011;48704;50.534;6.442;2022-09-13T02:07:50;3.60;;;1.70;;
62633;SDS011;48704;50.534;6.442;2022-09-13T02:10:34;2.58;;;1.25;;
62633;SDS011;48704;50.534;6.442;2022-09-13T02:13:06;2.17;;;1.40;;
62633;SDS011;48704;50.534;6.442;2022-09-13T02:15:37;3.72;;;1.40;;
62633;SDS011;48704;50.534;6.442;2022-09-13T02:18:08;2.95;;;1.58;;
62633;SDS011;48704;50.534;6.442;2022-09-13T02:20:42;2.55;;;1.42;;
62633;SDS011;48704;50.534;6.442;2022-09-13T02:23:12;3.97;;;1.50;;
62633;SDS011;48704;50.534;6.442;2022-09-13T02:25:41;3.03;;;1.42;;
62633;SDS011;48704;50.534;6.442;2022-09-13T02:28:10;2.45;;;1.60;;
62633;SDS011;48704;50.534;6.442;2022-09-13T02:30:42;3.03;;;1.45;;
62633;SDS011;48704;50.534;6.442;2022-09-13T02:36:04;2.20;;;1.50;;
62633;SDS011;48704;50.534;6.442;2022-09-13T02:38:36;3.17;;;1.40;;
62633;SDS011;48704;50.534;6.442;2022-09-13T02:41:12;3.35;;;1.60;;
62633;SDS011;48704;50.534;6.442;2022-09-13T02:43:47;2.97;;;1.65;;
62633;SDS011;48704;50.534;6.442;2022-09-13T02:48:48;2.72;;;1.50;;
62633;SDS011;48704;50.534;6.442;2022-09-13T02:51:24;2.88;;;1.40;;
62633;SDS011;48704;50.534;6.442;2022-09-13T02:56:47;3.60;;;1.77;;
62633;SDS011;48704;50.534;6.442;2022-09-13T02:59:21;3.38;;;1.60;;
62633;SDS011;48704;50.534;6.442;2022-09-13T03:02:09;3.25;;;1.40;;
62633;SDS011;48704;50.534;6.442;2022-09-13T03:04:36;3.53;;;1.60;;
62633;SDS011;48704;50.534;6.442;2022-09-13T03:07:01;2.17;;;1.38;;
62633;SDS011;48704;50.534;6.442;2022-09-13T03:09:31;2.17;;;1.58;;
62633;SDS011;48704;50.534;6.442;2022-09-13T03:12:08;3.15;;;1.48;;
62633;SDS011;48704;50.534;6.442;2022-09-13T03:17:44;2.67;;;1.40;;
62633;SDS011;48704;50.534;6.442;2022-09-13T03:26:16;2.40;;;1.23;;
62633;SDS011;48704;50.534;6.442;2022-09-13T03:29:09;3.00;;;1.48;;
62633;SDS011;48704;50.534;6.442;2022-09-13T03:43:17;2.58;;;1.10;;
62633;SDS011;48704;50.534;6.442;2022-09-13T03:45:59;2.63;;;1.30;;
62633;SDS011;48704;50.534;6.442;2022-09-13T03:48:29;2.28;;;1.30;;
62633;SDS011;48704;50.534;6.442;2022-09-13T03:50:55;3.95;;;1.60;;
62633;SDS011;48704;50.534;6.442;2022-09-13T03:53:22;3.05;;;1.70;;
62633;SDS011;48704;50.534;6.442;2022-09-13T03:55:49;3.17;;;1.73;;
62633;SDS011;48704;50.534;6.442;2022-09-13T03:58:15;4.32;;;2.33;;
62633;SDS011;48704;50.534;6.442;2022-09-13T04:00:42;4.25;;;1.40;;
62633;SDS011;48704;50.534;6.442;2022-09-13T04:03:09;2.58;;;1.63;;
62633;SDS011;48704;50.534;6.442;2022-09-13T04:05:34;2.05;;;1.40;;
62633;SDS011;48704;50.534;6.442;2022-09-13T04:08:00;2.20;;;1.40;;
62633;SDS011;48704;50.534;6.442;2022-09-13T04:10:29;2.20;;;1.42;;
62633;SDS011;48704;50.534;6.442;2022-09-13T04:12:55;2.38;;;1.40;;
62633;SDS011;48704;50.534;6.442;2022-09-13T04:15:21;2.15;;;1.52;;
62633;SDS011;48704;50.534;6.442;2022-09-13T04:17:46;3.28;;;1.70;;
62633;SDS011;48704;50.534;6.442;2022-09-13T04:20:12;3.20;;;1.40;;
62633;SDS011;48704;50.534;6.442;2022-09-13T04:22:37;2.60;;;1.45;;
62633;SDS011;48704;50.534;6.442;2022-09-13T04:25:03;3.13;;;1.33;;
62633;SDS011;48704;50.534;6.442;2022-09-13T04:27:29;2.50;;;1.52;;
62633;SDS011;48704;50.534;6.442;2022-09-13T04:29:55;3.45;;;1.55;;
62633;SDS011;48704;50.534;6.442;2022-09-13T04:32:20;2.80;;;1.15;;
62633;SDS011;48704;50.534;6.442;2022-09-13T04:34:45;2.92;;;1.50;;
62633;SDS011;48704;50.534;6.442;2022-09-13T04:37:11;3.60;;;1.63;;
62633;SDS011;48704;50.534;6.442;2022-09-13T04:39:37;2.25;;;1.45;;
62633;SDS011;48704;50.534;6.442;2022-09-13T04:42:02;3.10;;;1.50;;
62633;SDS011;48704;50.534;6.442;2022-09-13T04:44:28;2.97;;;1.40;;
62633;SDS011;48704;50.534;6.442;2022-09-13T04:46:54;3.50;;;1.42;;
62633;SDS011;48704;50.534;6.442;2022-09-13T04:49:19;3.60;;;1.67;;
62633;SDS011;48704;50.534;6.442;2022-09-13T04:51:45;3.58;;;1.40;;
62633;SDS011;48704;50.534;6.442;2022-09-13T04:54:11;3.10;;;1.38;;
62633;SDS011;48704;50.534;6.442;2022-09-13T04:56:37;3.10;;;1.50;;
62633;SDS011;48704;50.534;6.442;2022-09-13T04:59:03;2.90;;;1.40;;
62633;SDS011;48704;50.534;6.442;2022-09-13T05:01:28;2.90;;;1.63;;
62633;SDS011;48704;50.534;6.442;2022-09-13T05:03:54;3.33;;;1.42;;
62633;SDS011;48704;50.534;6.442;2022-09-13T05:06:20;3.75;;;1.30;;
62633;SDS011;48704;50.534;6.442;2022-09-13T05:08:50;3.53;;;1.50;;
62633;SDS011;48704;50.534;6.442;2022-09-13T05:11:19;2.97;;;1.67;;
62633;SDS011;48704;50.534;6.442;2022-09-13T05:13:48;2.80;;;1.58;;
62633;SDS011;48704;50.534;6.442;2022-09-13T05:16:19;2.80;;;1.70;;
62633;SDS011;48704;50.534;6.442;2022-09-13T05:18:45;3.45;;;1.55;;
62633;SDS011;48704;50.534;6.442;2022-09-13T05:21:10;3.92;;;1.95;;
62633;SDS011;48704;50.534;6.442;2022-09-13T05:23:35;2.90;;;1.60;;
62633;SDS011;48704;50.534;6.442;2022-09-13T05:26:02;3.17;;;1.48;;
62633;SDS011;48704;50.534;6.442;2022-09-13T05:28:29;2.13;;;1.25;;
62633;SDS011;48704;50.534;6.442;2022-09-13T05:31:00;2.50;;;1.52;;
62633;SDS011;48704;50.534;6.442;2022-09-13T05:33:35;3.70;;;1.50;;
62633;SDS011;48704;50.534;6.442;2022-09-13T05:36:02;3.85;;;1.70;;
62633;SDS011;48704;50.534;6.442;2022-09-13T05:38:28;3.47;;;1.60;;
62633;SDS011;48704;50.534;6.442;2022-09-13T05:40:54;4.28;;;1.90;;
62633;SDS011;48704;50.534;6.442;2022-09-13T05:43:25;3.03;;;1.83;;
62633;SDS011;48704;50.534;6.442;2022-09-13T05:45:58;4.22;;;1.70;;
62633;SDS011;48704;50.534;6.442;2022-09-13T05:48:29;2.90;;;1.70;;
62633;SDS011;48704;50.534;6.442;2022-09-13T05:50:55;4.07;;;2.08;;
62633;SDS011;48704;50.534;6.442;2022-09-13T05:53:20;3.05;;;1.60;;
62633;SDS011;48704;50.534;6.442;2022-09-13T05:55:45;2.50;;;1.55;;
62633;SDS011;48704;50.534;6.442;2022-09-13T05:58:11;2.42;;;1.40;;
62633;SDS011;48704;50.534;6.442;2022-09-13T06:00:36;2.97;;;1.60;;
62633;SDS011;48704;50.534;6.442;2022-09-13T06:03:01;4.00;;;1.42;;
62633;SDS011;48704;50.534;6.442;2022-09-13T06:05:27;3.92;;;1.60;;
62633;SDS011;48704;50.534;6.442;2022-09-13T06:07:52;2.55;;;1.50;;
62633;SDS011;48704;50.534;6.442;2022-09-13T06:10:17;3.85;;;1.60;;
62633;SDS011;48704;50.534;6.442;2022-09-13T06:12:44;3.53;;;1.70;;
62633;SDS011;48704;50.534;6.442;2022-09-13T06:15:09;3.70;;;1.60;;
62633;SDS011;48704;50.534;6.442;2022-09-13T06:17:35;3.28;;;1.60;;
62633;SDS011;48704;50.534;6.442;2022-09-13T06:20:00;3.58;;;1.48;;
62633;SDS011;48704;50.534;6.442;2022-09-13T06:22:26;2.85;;;1.58;;
62633;SDS011;48704;50.534;6.442;2022-09-13T06:24:57;3.65;;;1.60;;
62633;SDS011;48704;50.534;6.442;2022-09-13T06:27:22;3.80;;;1.55;;
62633;SDS011;48704;50.534;6.442;2022-09-13T06:29:47;2.97;;;1.58;;
62633;SDS011;48704;50.534;6.442;2022-09-13T06:32:13;2.85;;;1.80;;
62633;SDS011;48704;50.534;6.442;2022-09-13T06:34:38;7.20;;;2.33;;
62633;SDS011;48704;50.534;6.442;2022-09-13T06:37:03;5.63;;;3.00;;
62633;SDS011;48704;50.534;6.442;2022-09-13T06:39:29;6.85;;;3.30;;
62633;SDS011;48704;50.534;6.442;2022-09-13T06:41:55;7.68;;;4.40;;
62633;SDS011;48704;50.534;6.442;2022-09-13T06:44:21;7.38;;;4.43;;
62633;SDS011;48704;50.534;6.442;2022-09-13T06:46:47;5.55;;;3.50;;
62633;SDS011;48704;50.534;6.442;2022-09-13T06:49:12;4.25;;;2.85;;
62633;SDS011;48704;50.534;6.442;2022-09-13T06:51:38;8.05;;;1.80;;
62633;SDS011;48704;50.534;6.442;2022-09-13T06:54:03;2.50;;;1.50;;
62633;SDS011;48704;50.534;6.442;2022-09-13T06:56:29;2.88;;;1.60;;
62633;SDS011;48704;50.534;6.442;2022-09-13T06:59:00;2.97;;;1.60;;
62633;SDS011;48704;50.534;6.442;2022-09-13T07:01:29;4.30;;;1.90;;
62633;SDS011;48704;50.534;6.442;2022-09-13T07:03:57;3.15;;;1.70;;
62633;SDS011;48704;50.534;6.442;2022-09-13T07:06:25;4.43;;;1.92;;
62633;SDS011;48704;50.534;6.442;2022-09-13T07:08:52;4.00;;;2.30;;
62633;SDS011;48704;50.534;6.442;2022-09-13T07:11:19;8.45;;;2.22;;
62633;SDS011;48704;50.534;6.442;2022-09-13T07:13:53;4.97;;;2.47;;
62633;SDS011;48704;50.534;6.442;2022-09-13T07:16:20;3.45;;;2.25;;
62633;SDS011;48704;50.534;6.442;2022-09-13T07:18:51;5.95;;;2.50;;
62633;SDS011;48704;50.534;6.442;2022-09-13T07:21:21;9.25;;;3.20;;
62633;SDS011;48704;50.534;6.442;2022-09-13T07:23:47;7.07;;;3.88;;
62633;SDS011;48704;50.534;6.442;2022-09-13T07:26:13;6.18;;;2.95;;
62633;SDS011;48704;50.534;6.442;2022-09-13T07:28:41;3.22;;;2.13;;
62633;SDS011;48704;50.534;6.442;2022-09-13T07:33:38;5.60;;;2.05;;
62633;SDS011;48704;50.534;6.442;2022-09-13T07:36:05;4.72;;;1.88;;
62633;SDS011;48704;50.534;6.442;2022-09-13T07:38:32;4.03;;;1.75;;
62633;SDS011;48704;50.534;6.442;2022-09-13T07:40:59;4.85;;;2.17;;
62633;SDS011;48704;50.534;6.442;2022-09-13T07:43:25;2.65;;;1.63;;
62633;SDS011;48704;50.534;6.442;2022-09-13T07:48:37;3.38;;;1.83;;
62633;SDS011;48704;50.534;6.442;2022-09-13T07:51:23;6.10;;;1.85;;
62633;SDS011;48704;50.534;6.442;2022-09-13T07:53:51;3.03;;;1.80;;
62633;SDS011;48704;50.534;6.442;2022-09-13T07:56:21;3.45;;;1.92;;
62633;SDS011;48704;50.534;6.442;2022-09-13T07:58:49;3.67;;;1.80;;
62633;SDS011;48704;50.534;6.442;2022-09-13T08:01:19;5.50;;;2.33;;
62633;SDS011;48704;50.534;6.442;2022-09-13T08:06:18;3.28;;;2.05;;
62633;SDS011;48704;50.534;6.442;2022-09-13T08:08:43;4.90;;;1.95;;
62633;SDS011;48704;50.534;6.442;2022-09-13T08:11:09;3.25;;;2.00;;
62633;SDS011;48704;50.534;6.442;2022-09-13T08:13:40;3.60;;;1.85;;
62633;SDS011;48704;50.534;6.442;2022-09-13T08:16:05;4.25;;;2.10;;
62633;SDS011;48704;50.534;6.442;2022-09-13T08:18:31;3.70;;;2.15;;
62633;SDS011;48704;50.534;6.442;2022-09-13T08:20:57;3.15;;;2.25;;
62633;SDS011;48704;50.534;6.442;2022-09-13T08:23:24;3.75;;;2.50;;
62633;SDS011;48704;50.534;6.442;2022-09-13T08:25:50;7.13;;;2.30;;
62633;SDS011;48704;50.534;6.442;2022-09-13T08:28:17;3.70;;;2.13;;
62633;SDS011;48704;50.534;6.442;2022-09-13T08:30:45;4.22;;;2.08;;
62633;SDS011;48704;50.534;6.442;2022-09-13T08:33:12;2.72;;;1.85;;
62633;SDS011;48704;50.534;6.442;2022-09-13T08:35:37;3.85;;;2.25;;
62633;SDS011;48704;50.534;6.442;2022-09-13T08:38:04;3.35;;;1.63;;
62633;SDS011;48704;50.534;6.442;2022-09-13T08:40:31;3.38;;;1.80;;
62633;SDS011;48704;50.534;6.442;2022-09-13T08:43:12;2.80;;;1.60;;
62633;SDS011;48704;50.534;6.442;2022-09-13T08:45:41;2.95;;;1.30;;
62633;SDS011;48704;50.534;6.442;2022-09-13T08:48:11;3.05;;;1.30;;
62633;SDS011;48704;50.534;6.442;2022-09-13T08:50:40;2.92;;;1.42;;
62633;SDS011;48704;50.534;6.442;2022-09-13T08:53:16;3.70;;;2.10;;
62633;SDS011;48704;50.534;6.442;2022-09-13T09:00:51;4.63;;;2.58;;
62633;SDS011;48704;50.534;6.442;2022-09-13T09:06:11;1.90;;;1.05;;
62633;SDS011;48704;50.534;6.442;2022-09-13T09:08:44;2.38;;;1.20;;
62633;SDS011;48704;50.534;6.442;2022-09-13T09:11:22;2.30;;;1.50;;
62633;SDS011;48704;50.534;6.442;2022-09-13T09:14:11;3.70;;;1.23;;
62633;SDS011;48704;50.534;6.442;2022-09-13T09:16:46;3.67;;;1.30;;
62633;SDS011;48704;50.534;6.442;2022-09-13T09:21:48;2.50;;;1.38;;
62633;SDS011;48704;50.534;6.442;2022-09-13T09:24:16;3.65;;;1.30;;
62633;SDS011;48704;50.534;6.442;2022-09-13T09:26:45;2.00;;;1.10;;
62633;SDS011;48704;50.534;6.442;2022-09-13T09:29:17;3.05;;;1.35;;
62633;SDS011;48704;50.534;6.442;2022-09-13T09:31:47;3.35;;;1.30;;
62633;SDS011;48704;50.534;6.442;2022-09-13T09:40:00;2.95;;;1.20;;
62633;SDS011;48704;50.534;6.442;2022-09-13T09:42:29;3.47;;;1.30;;
62633;SDS011;48704;50.534;6.442;2022-09-13T09:45:00;3.13;;;1.63;;
62633;SDS011;48704;50.534;6.442;2022-09-13T09:47:28;3.22;;;1.23;;
62633;SDS011;48704;50.534;6.442;2022-09-13T09:50:10;2.50;;;0.98;;
62633;SDS011;48704;50.534;6.442;2022-09-13T09:58:09;3.15;;;1.10;;
62633;SDS011;48704;50.534;6.442;2022-09-13T10:00:37;2.53;;;1.20;;
62633;SDS011;48704;50.534;6.442;2022-09-13T10:03:20;3.13;;;1.17;;
62633;SDS011;48704;50.534;6.442;2022-09-13T10:05:49;3.10;;;1.20;;
62633;SDS011;48704;50.534;6.442;2022-09-13T10:08:23;2.67;;;1.10;;
62633;SDS011;48704;50.534;6.442;2022-09-13T10:10:52;2.58;;;1.20;;
62633;SDS011;48704;50.534;6.442;2022-09-13T10:13:21;2.65;;;1.10;;
62633;SDS011;48704;50.534;6.442;2022-09-13T10:15:54;2.55;;;1.30;;
62633;SDS011;48704;50.534;6.442;2022-09-13T10:18:22;3.10;;;1.05;;
62633;SDS011;48704;50.534;6.442;2022-09-13T10:23:35;2.75;;;1.10;;
62633;SDS011;48704;50.534;6.442;2022-09-13T10:29:20;1.50;;;0.70;;
62633;SDS011;48704;50.534;6.442;2022-09-13T10:31:30;1.33;;;0.77;;
62633;SDS011;48704;50.534;6.442;2022-09-13T10:34:01;1.77;;;0.80;;
62633;SDS011;48704;50.534;6.442;2022-09-13T10:36:31;3.17;;;1.10;;
62633;SDS011;48704;50.534;6.442;2022-09-13T10:41:41;4.93;;;0.93;;
62633;SDS011;48704;50.534;6.442;2022-09-13T10:47:02;1.90;;;0.90;;
62633;SDS011;48704;50.534;6.442;2022-09-13T10:49:41;1.00;;;0.65;;
62633;SDS011;48704;50.534;6.442;2022-09-13T10:54:49;2.25;;;0.93;;
62633;SDS011;48704;50.534;6.442;2022-09-13T10:57:31;2.45;;;0.80;;
62633;SDS011;48704;50.534;6.442;2022-09-13T11:00:01;5.28;;;0.90;;
62633;SDS011;48704;50.534;6.442;2022-09-13T11:05:21;2.00;;;0.75;;
62633;SDS011;48704;50.534;6.442;2022-09-13T11:15:36;1.48;;;0.88;;
62633;SDS011;48704;50.534;6.442;2022-09-13T11:18:15;1.58;;;0.75;;
62633;SDS011;48704;50.534;6.442;2022-09-13T11:24:02;1.23;;;0.80;;
62633;SDS011;48704;50.534;6.442;2022-09-13T11:29:41;3.05;;;1.00;;
62633;SDS011;48704;50.534;6.442;2022-09-13T11:38:26;2.22;;;1.00;;
62633;SDS011;48704;50.534;6.442;2022-09-13T11:40:56;3.10;;;0.93;;
62633;SDS011;48704;50.534;6.442;2022-09-13T11:49:02;2.35;;;1.45;;
62633;SDS011;48704;50.534;6.442;2022-09-13T11:57:13;3.42;;;1.35;;
62633;SDS011;48704;50.534;6.442;2022-09-13T12:05:18;1.63;;;1.00;;
62633;SDS011;48704;50.534;6.442;2022-09-13T12:07:54;2.10;;;1.00;;
62633;SDS011;48704;50.534;6.442;2022-09-13T12:10:29;3.00;;;1.15;;
62633;SDS011;48704;50.534;6.442;2022-09-13T12:13:01;3.10;;;0.95;;
62633;SDS011;48704;50.534;6.442;2022-09-13T12:15:34;2.83;;;1.20;;
62633;SDS011;48704;50.534;6.442;2022-09-13T12:18:08;2.30;;;1.20;;
62633;SDS011;48704;50.534;6.442;2022-09-13T12:20:41;3.65;;;1.30;;
62633;SDS011;48704;50.534;6.442;2022-09-13T12:23:11;1.77;;;1.20;;
62633;SDS011;48704;50.534;6.442;2022-09-13T12:25:43;2.83;;;1.10;;
62633;SDS011;48704;50.534;6.442;2022-09-13T12:28:18;2.35;;;1.05;;
62633;SDS011;48704;50.534;6.442;2022-09-13T12:30:49;3.33;;;1.20;;
62633;SDS011;48704;50.534;6.442;2022-09-13T12:33:19;3.87;;;1.10;;
62633;SDS011;48704;50.534;6.442;2022-09-13T12:36:04;1.88;;;1.02;;
62633;SDS011;48704;50.534;6.442;2022-09-13T12:46:55;4.13;;;1.38;;
62633;SDS011;48704;50.534;6.442;2022-09-13T13:00:20;1.88;;;1.20;;
62633;SDS011;48704;50.534;6.442;2022-09-13T13:05:41;2.97;;;1.25;;
62633;SDS011;48704;50.534;6.442;2022-09-13T13:08:28;2.00;;;1.10;;
62633;SDS011;48704;50.534;6.442;2022-09-13T13:11:12;3.20;;;1.48;;
62633;SDS011;48704;50.534;6.442;2022-09-13T13:13:39;2.53;;;1.30;;
62633;SDS011;48704;50.534;6.442;2022-09-13T13:18:59;3.58;;;1.60;;
62633;SDS011;48704;50.534;6.442;2022-09-13T13:29:16;3.13;;;1.50;;
62633;SDS011;48704;50.534;6.442;2022-09-13T13:36:46;2.47;;;1.47;;
62633;SDS011;48704;50.534;6.442;2022-09-13T13:46:44;2.35;;;1.23;;
62633;SDS011;48704;50.534;6.442;2022-09-13T13:57:51;3.55;;;1.50;;
62633;SDS011;48704;50.534;6.442;2022-09-13T13:59:55;2.50;;;1.48;;
62633;SDS011;48704;50.534;6.442;2022-09-13T14:02:33;2.78;;;1.20;;
62633;SDS011;48704;50.534;6.442;2022-09-13T14:05:22;2.17;;;1.27;;
62633;SDS011;48704;50.534;6.442;2022-09-13T14:08:18;3.13;;;1.48;;
62633;SDS011;48704;50.534;6.442;2022-09-13T14:13:59;2.10;;;1.27;;
62633;SDS011;48704;50.534;6.442;2022-09-13T14:16:36;1.83;;;1.13;;
62633;SDS011;48704;50.534;6.442;2022-09-13T14:19:22;2.08;;;1.15;;
62633;SDS011;48704;50.534;6.442;2022-09-13T14:22:27;2.13;;;1.10;;
62633;SDS011;48704;50.534;6.442;2022-09-13T14:24:49;2.05;;;1.30;;
62633;SDS011;48704;50.534;6.442;2022-09-13T14:29:57;2.15;;;1.20;;
62633;SDS011;48704;50.534;6.442;2022-09-13T14:32:28;2.63;;;1.45;;
62633;SDS011;48704;50.534;6.442;2022-09-13T14:37:24;3.05;;;1.30;;
62633;SDS011;48704;50.534;6.442;2022-09-13T14:42:39;3.65;;;1.60;;
62633;SDS011;48704;50.534;6.442;2022-09-13T14:45:11;4.60;;;1.48;;
62633;SDS011;48704;50.534;6.442;2022-09-13T14:47:59;2.40;;;1.40;;
62633;SDS011;48704;50.534;6.442;2022-09-13T14:50:33;3.78;;;1.52;;
62633;SDS011;48704;50.534;6.442;2022-09-13T14:53:04;2.80;;;1.67;;
62633;SDS011;48704;50.534;6.442;2022-09-13T14:55:34;3.35;;;1.55;;
62633;SDS011;48704;50.534;6.442;2022-09-13T14:58:24;2.30;;;1.40;;
62633;SDS011;48704;50.534;6.442;2022-09-13T15:03:23;3.45;;;1.48;;
62633;SDS011;48704;50.534;6.442;2022-09-13T15:05:50;3.15;;;1.40;;
62633;SDS011;48704;50.534;6.442;2022-09-13T15:11:02;2.78;;;1.60;;
62633;SDS011;48704;50.534;6.442;2022-09-13T15:13:30;2.20;;;1.35;;
62633;SDS011;48704;50.534;6.442;2022-09-13T15:15:57;2.65;;;1.42;;
62633;SDS011;48704;50.534;6.442;2022-09-13T15:18:29;2.85;;;1.40;;
62633;SDS011;48704;50.534;6.442;2022-09-13T15:21:05;3.95;;;1.63;;
62633;SDS011;48704;50.534;6.442;2022-09-13T15:23:41;4.35;;;1.40;;
62633;SDS011;48704;50.534;6.442;2022-09-13T15:26:19;2.97;;;1.35;;
62633;SDS011;48704;50.534;6.442;2022-09-13T15:31:26;2.33;;;1.17;;
62633;SDS011;48704;50.534;6.442;2022-09-13T15:34:09;4.57;;;1.40;;
62633;SDS011;48704;50.534;6.442;2022-09-13T15:36:41;2.92;;;1.20;;
62633;SDS011;48704;50.534;6.442;2022-09-13T15:41:33;5.47;;;1.10;;
62633;SDS011;48704;50.534;6.442;2022-09-13T15:44:04;4.72;;;1.40;;
62633;SDS011;48704;50.534;6.442;2022-09-13T15:46:31;4.68;;;1.30;;
62633;SDS011;48704;50.534;6.442;2022-09-13T15:49:00;3.45;;;1.30;;
62633;SDS011;48704;50.534;6.442;2022-09-13T15:51:28;2.70;;;1.20;;
62633;SDS011;48704;50.534;6.442;2022-09-13T15:53:55;4.38;;;1.60;;
62633;SDS011;48704;50.534;6.442;2022-09-13T15:56:25;4.85;;;1.50;;
62633;SDS011;48704;50.534;6.442;2022-09-13T15:58:55;3.83;;;1.50;;
62633;SDS011;48704;50.534;6.442;2022-09-13T16:01:20;4.60;;;1.30;;
62633;SDS011;48704;50.534;6.442;2022-09-13T16:03:46;3.30;;;1.40;;
62633;SDS011;48704;50.534;6.442;2022-09-13T16:06:11;3.65;;;1.63;;
62633;SDS011;48704;50.534;6.442;2022-09-13T16:08:37;3.70;;;1.38;;
62633;SDS011;48704;50.534;6.442;2022-09-13T16:11:03;3.88;;;1.40;;
62633;SDS011;48704;50.534;6.442;2022-09-13T16:13:29;2.72;;;1.40;;
62633;SDS011;48704;50.534;6.442;2022-09-13T16:15:55;4.10;;;1.48;;
62633;SDS011;48704;50.534;6.442;2022-09-13T16:18:21;4.15;;;1.50;;
62633;SDS011;48704;50.534;6.442;2022-09-13T16:20:47;3.42;;;1.42;;
62633;SDS011;48704;50.534;6.442;2022-09-13T16:23:13;2.47;;;1.33;;
62633;SDS011;48704;50.534;6.442;2022-09-13T16:25:38;2.95;;;1.48;;
62633;SDS011;48704;50.534;6.442;2022-09-13T16:28:04;3.75;;;1.80;;
62633;SDS011;48704;50.534;6.442;2022-09-13T16:30:30;3.63;;;1.83;;
62633;SDS011;48704;50.534;6.442;2022-09-13T16:32:57;3.35;;;1.73;;
62633;SDS011;48704;50.534;6.442;2022-09-13T16:35:23;3.45;;;1.60;;
62633;SDS011;48704;50.534;6.442;2022-09-13T16:37:50;2.83;;;1.65;;
62633;SDS011;48704;50.534;6.442;2022-09-13T16:40:17;4.15;;;1.88;;
62633;SDS011;48704;50.534;6.442;2022-09-13T16:42:43;3.42;;;1.50;;
62633;SDS011;48704;50.534;6.442;2022-09-13T16:45:09;4.47;;;1.67;;
62633;SDS011;48704;50.534;6.442;2022-09-13T16:47:34;6.28;;;2.33;;
62633;SDS011;48704;50.534;6.442;2022-09-13T16:50:00;3.67;;;2.25;;
62633;SDS011;48704;50.534;6.442;2022-09-13T16:52:26;3.47;;;1.80;;
62633;SDS011;48704;50.534;6.442;2022-09-13T16:54:52;4.97;;;2.20;;
62633;SDS011;48704;50.534;6.442;2022-09-13T16:57:18;3.72;;;2.40;;
62633;SDS011;48704;50.534;6.442;2022-09-13T16:59:44;3.75;;;2.47;;
62633;SDS011;48704;50.534;6.442;2022-09-13T17:02:11;5.70;;;2.25;;
62633;SDS011;48704;50.534;6.442;2022-09-13T17:04:36;5.00;;;2.28;;
62633;SDS011;48704;50.534;6.442;2022-09-13T17:07:01;5.95;;;2.30;;
62633;SDS011;48704;50.534;6.442;2022-09-13T17:09:29;7.13;;;3.00;;
62633;SDS011;48704;50.534;6.442;2022-09-13T17:11:55;5.32;;;2.47;;
62633;SDS011;48704;50.534;6.442;2022-09-13T17:14:20;6.00;;;2.33;;
62633;SDS011;48704;50.534;6.442;2022-09-13T17:16:47;6.70;;;2.78;;
62633;SDS011;48704;50.534;6.442;2022-09-13T17:21:46;6.10;;;2.92;;
62633;SDS011;48704;50.534;6.442;2022-09-13T17:24:12;5.47;;;3.30;;
62633;SDS011;48704;50.534;6.442;2022-09-13T17:26:37;5.72;;;3.30;;
62633;SDS011;48704;50.534;6.442;2022-09-13T17:29:03;5.68;;;3.40;;
62633;SDS011;48704;50.534;6.442;2022-09-13T17:31:29;8.23;;;3.42;;
62633;SDS011;48704;50.534;6.442;2022-09-13T17:33:54;6.75;;;2.95;;
62633;SDS011;48704;50.534;6.442;2022-09-13T17:36:20;4.97;;;3.30;;
62633;SDS011;48704;50.534;6.442;2022-09-13T17:38:46;6.25;;;3.05;;
62633;SDS011;48704;50.534;6.442;2022-09-13T17:41:12;4.47;;;3.03;;
62633;SDS011;48704;50.534;6.442;2022-09-13T17:43:40;5.65;;;2.90;;
62633;SDS011;48704;50.534;6.442;2022-09-13T17:46:09;5.35;;;3.35;;
62633;SDS011;48704;50.534;6.442;2022-09-13T17:48:36;4.43;;;2.50;;
62633;SDS011;48704;50.534;6.442;2022-09-13T17:51:03;4.43;;;2.92;;
62633;SDS011;48704;50.534;6.442;2022-09-13T17:53:30;6.43;;;3.05;;
62633;SDS011;48704;50.534;6.442;2022-09-13T17:56:00;5.25;;;3.10;;
62633;SDS011;48704;50.534;6.442;2022-09-13T17:58:26;8.05;;;3.00;;
62633;SDS011;48704;50.534;6.442;2022-09-13T18:00:58;9.48;;;2.92;;
62633;SDS011;48704;50.534;6.442;2022-09-13T18:03:28;4.00;;;2.53;;
62633;SDS011;48704;50.534;6.442;2022-09-13T18:05:58;5.20;;;2.60;;
62633;SDS011;48704;50.534;6.442;2022-09-13T18:08:25;5.95;;;3.25;;
62633;SDS011;48704;50.534;6.442;2022-09-13T18:10:52;5.22;;;3.03;;
62633;SDS011;48704;50.534;6.442;2022-09-13T18:13:18;4.13;;;2.78;;
62633;SDS011;48704;50.534;6.442;2022-09-13T18:15:43;4.07;;;2.58;;
62633;SDS011;48704;50.534;6.442;2022-09-13T18:18:10;5.43;;;2.65;;
62633;SDS011;48704;50.534;6.442;2022-09-13T18:20:36;4.97;;;2.50;;
62633;SDS011;48704;50.534;6.442;2022-09-13T18:23:01;5.00;;;2.80;;
62633;SDS011;48704;50.534;6.442;2022-09-13T18:25:26;5.65;;;2.78;;
62633;SDS011;48704;50.534;6.442;2022-09-13T18:27:51;4.43;;;2.80;;
62633;SDS011;48704;50.534;6.442;2022-09-13T18:30:17;5.38;;;2.47;;
62633;SDS011;48704;50.534;6.442;2022-09-13T18:32:42;5.18;;;3.00;;
62633;SDS011;48704;50.534;6.442;2022-09-13T18:35:07;5.10;;;3.10;;
62633;SDS011;48704;50.534;6.442;2022-09-13T18:37:33;3.85;;;2.78;;
62633;SDS011;48704;50.534;6.442;2022-09-13T18:39:58;6.38;;;2.95;;
62633;SDS011;48704;50.534;6.442;2022-09-13T18:42:24;4.90;;;3.40;;